Time;durP1;ratioP1;P1;durP2;ratioP2;P2;SDS_P1;SDS_P2;PMS_P1;PMS_P2;Temp;Humidity;BMP_temperature;BMP_pressure;BME280_temperature;BME280_humidity;BME280_pressure;Samples;Min_cycle;Max_cycle;Signal;HPM_P1;HPM_P2
2023/08/01 00:00:36;;;;;;;6.20;3.13;;;19.50;94.40;;;;;;5066338;28;20387;-83
2023/08/01 00:03:02;;;;;;;7.78;2.75;;;19.50;94.40;;;;;;5070758;28;20043;-82
2023/08/01 00:05:28;;;;;;;5.97;2.95;;;19.50;94.40;;;;;;5068206;28;20032;-82
2023/08/01 00:07:53;;;;;;;7.38;3.30;;;19.50;94.40;;;;;;5069892;28;20024;-82
2023/08/01 00:10:19;;;;;;;6.35;2.78;;;19.50;94.50;;;;;;5070154;28;20032;-83
2023/08/01 00:12:44;;;;;;;5.05;2.78;;;19.50;94.50;;;;;;5071011;28;20478;-82
2023/08/01 00:15:10;;;;;;;6.70;3.20;;;19.50;94.50;;;;;;5066644;28;20116;-83
2023/08/01 00:17:36;;;;;;;5.80;2.97;;;19.50;94.50;;;;;;5100869;27;20115;-82
2023/08/01 00:20:03;;;;;;;6.15;2.70;;;19.50;94.50;;;;;;5066759;28;20553;-83
2023/08/01 00:22:28;;;;;;;4.03;2.70;;;19.50;94.50;;;;;;5067563;28;20078;-83
2023/08/01 00:24:54;;;;;;;6.25;3.22;;;19.50;94.60;;;;;;5068321;28;20484;-82
2023/08/01 00:27:20;;;;;;;9.57;3.20;;;19.50;94.50;;;;;;5066747;28;20023;-82
2023/08/01 00:29:45;;;;;;;10.50;3.30;;;19.50;94.60;;;;;;5066275;28;20043;-82
2023/08/01 00:32:11;;;;;;;7.65;2.95;;;19.50;94.60;;;;;;5070965;28;20020;-82
2023/08/01 00:34:37;;;;;;;8.93;3.55;;;19.50;94.60;;;;;;5098564;28;20029;-82
2023/08/01 00:37:03;;;;;;;10.07;3.17;;;19.50;94.60;;;;;;5070255;28;20021;-82
2023/08/01 00:39:28;;;;;;;7.13;2.78;;;19.50;94.60;;;;;;5068389;28;20020;-82
2023/08/01 00:41:54;;;;;;;6.47;2.45;;;19.50;94.60;;;;;;5076776;28;20027;-82
2023/08/01 00:44:20;;;;;;;7.15;2.97;;;19.50;94.60;;;;;;5063068;28;20024;-82
2023/08/01 00:46:45;;;;;;;11.23;2.72;;;19.50;94.60;;;;;;5101763;27;20486;-82
2023/08/01 00:49:12;;;;;;;7.22;2.70;;;19.50;94.60;;;;;;5071231;28;20400;-82
2023/08/01 00:51:42;;;;;;;6.35;2.88;;;19.50;94.60;;;;;;5068874;28;20043;-82
2023/08/01 00:54:07;;;;;;;9.30;3.03;;;19.40;94.60;;;;;;5063161;28;20040;-82
2023/08/01 00:56:33;;;;;;;5.88;3.03;;;19.40;94.60;;;;;;5058797;28;20063;-82
2023/08/01 00:58:59;;;;;;;5.90;2.90;;;19.60;94.70;;;;;;5063020;28;20024;-82
2023/08/01 01:01:24;;;;;;;6.35;3.17;;;19.40;94.60;;;;;;5069357;28;20075;-82
2023/08/01 01:03:50;;;;;;;6.40;2.40;;;19.50;94.70;;;;;;5074054;28;20021;-82
2023/08/01 01:06:25;;;;;;;6.93;2.85;;;19.50;94.70;;;;;;5072222;28;20089;-81
2023/08/01 01:08:50;;;;;;;3.67;2.33;;;19.40;94.60;;;;;;5064742;28;20108;-82
2023/08/01 01:11:16;;;;;;;9.18;2.70;;;19.40;94.60;;;;;;5059492;28;20147;-82
2023/08/01 01:13:42;;;;;;;8.65;3.00;;;19.50;94.70;;;;;;5059669;28;20055;-82
2023/08/01 01:16:07;;;;;;;6.78;2.85;;;19.40;94.70;;;;;;5065474;28;20075;-82
2023/08/01 01:18:33;;;;;;;7.13;3.17;;;19.50;94.70;;;;;;5060899;28;20103;-82
2023/08/01 01:20:59;;;;;;;4.25;2.45;;;19.50;94.80;;;;;;5072341;28;20031;-82
2023/08/01 01:23:26;;;;;;;5.78;2.33;;;19.50;94.80;;;;;;5072230;28;20047;-82
2023/08/01 01:25:54;;;;;;;4.25;2.40;;;19.40;94.80;;;;;;5066230;28;20025;-82
2023/08/01 01:28:20;;;;;;;6.90;2.83;;;19.40;94.70;;;;;;5068506;28;20454;-81
2023/08/01 01:30:48;;;;;;;4.63;2.88;;;19.40;94.80;;;;;;5067040;28;20033;-81
2023/08/01 01:33:15;;;;;;;4.68;2.47;;;19.40;94.80;;;;;;5068439;28;20102;-82
2023/08/01 01:35:41;;;;;;;7.13;3.05;;;19.40;94.80;;;;;;5065262;28;20255;-82
2023/08/01 01:38:07;;;;;;;5.32;2.88;;;19.40;94.80;;;;;;5063536;28;20107;-81
2023/08/01 01:40:33;;;;;;;6.00;3.03;;;19.40;94.80;;;;;;5071627;28;20035;-81
2023/08/01 01:43:00;;;;;;;3.78;2.20;;;19.40;94.80;;;;;;5060974;28;20036;-82
2023/08/01 01:45:26;;;;;;;4.38;2.72;;;19.40;94.80;;;;;;5063922;28;20063;-82
2023/08/01 01:47:52;;;;;;;13.75;2.83;;;19.40;94.80;;;;;;5065843;28;20032;-82
2023/08/01 01:50:18;;;;;;;5.15;2.30;;;19.40;94.80;;;;;;5063664;28;20028;-81
2023/08/01 01:52:44;;;;;;;4.78;2.15;;;19.40;94.90;;;;;;5066946;28;20099;-82
2023/08/01 01:55:10;;;;;;;4.78;2.38;;;19.40;94.90;;;;;;5100022;27;20058;-81
2023/08/01 01:57:36;;;;;;;5.25;3.08;;;19.40;94.90;;;;;;5063054;28;20040;-80
2023/08/01 02:00:03;;;;;;;4.85;2.83;;;19.40;94.90;;;;;;5068868;28;20036;-82
2023/08/01 02:02:29;;;;;;;3.65;2.38;;;19.40;94.90;;;;;;5066395;28;20013;-80
2023/08/01 02:04:55;;;;;;;4.05;2.25;;;19.40;94.90;;;;;;5066454;28;20051;-81
2023/08/01 02:07:20;;;;;;;4.70;2.47;;;19.40;95.00;;;;;;5074381;28;20477;-80
2023/08/01 02:09:46;;;;;;;5.38;2.45;;;19.40;95.00;;;;;;5072949;28;20031;-81
2023/08/01 02:12:14;;;;;;;8.20;2.83;;;19.40;95.00;;;;;;5072943;28;20115;-81
2023/08/01 02:14:40;;;;;;;2.92;2.05;;;19.40;95.00;;;;;;5061331;28;20028;-80
2023/08/01 02:17:06;;;;;;;6.82;2.38;;;19.40;95.00;;;;;;5067576;28;20593;-80
2023/08/01 02:19:32;;;;;;;7.15;3.08;;;19.40;95.10;;;;;;5065458;28;20043;-80
2023/08/01 02:21:58;;;;;;;6.22;1.92;;;19.40;95.10;;;;;;5066221;28;20533;-80
2023/08/01 02:24:25;;;;;;;3.72;2.38;;;19.40;95.10;;;;;;5070615;28;20021;-82
2023/08/01 02:26:51;;;;;;;6.07;2.60;;;19.40;95.10;;;;;;5065579;28;20108;-81
2023/08/01 02:29:17;;;;;;;5.85;2.75;;;19.40;95.20;;;;;;5070647;28;20425;-81
2023/08/01 02:31:43;;;;;;;7.40;2.45;;;19.40;95.20;;;;;;5062762;28;20563;-80
2023/08/01 02:34:08;;;;;;;7.13;2.88;;;19.40;95.10;;;;;;5068518;28;20031;-81
2023/08/01 02:36:34;;;;;;;3.55;2.50;;;19.40;95.20;;;;;;5070878;28;20064;-81
2023/08/01 02:38:59;;;;;;;5.07;2.42;;;19.40;95.20;;;;;;5070808;28;20477;-82
2023/08/01 02:41:25;;;;;;;4.18;2.67;;;19.40;95.20;;;;;;5068986;28;20485;-81
2023/08/01 02:43:51;;;;;;;4.90;2.63;;;19.40;95.20;;;;;;5065457;28;20032;-81
2023/08/01 02:46:16;;;;;;;6.45;3.10;;;19.40;95.30;;;;;;5101175;27;20024;-82
2023/08/01 02:48:42;;;;;;;6.15;2.70;;;19.40;95.30;;;;;;5098116;27;20045;-81
2023/08/01 02:51:09;;;;;;;5.63;2.47;;;19.40;95.30;;;;;;5072488;28;20040;-81
2023/08/01 02:53:35;;;;;;;5.10;2.60;;;19.40;95.30;;;;;;5066219;28;20107;-81
2023/08/01 02:56:02;;;;;;;4.05;2.47;;;19.40;95.30;;;;;;5068333;28;20028;-81
2023/08/01 02:58:27;;;;;;;7.03;3.22;;;19.40;95.40;;;;;;5069128;28;20020;-82
2023/08/01 03:00:53;;;;;;;6.30;3.00;;;19.40;95.40;;;;;;5069855;28;20029;-82
2023/08/01 03:03:18;;;;;;;9.35;3.28;;;19.40;95.40;;;;;;5067957;28;20025;-82
2023/08/01 03:05:44;;;;;;;7.45;2.65;;;19.40;95.40;;;;;;5099882;27;20021;-82
2023/08/01 03:08:10;;;;;;;4.40;2.30;;;19.40;95.40;;;;;;5070892;28;20120;-82
2023/08/01 03:10:35;;;;;;;9.13;2.88;;;19.40;95.50;;;;;;5063519;28;20109;-82
2023/08/01 03:13:01;;;;;;;5.85;2.85;;;19.40;95.50;;;;;;5070433;28;20021;-82
2023/08/01 03:15:28;;;;;;;7.93;2.70;;;19.40;95.50;;;;;;5065399;28;20020;-81
2023/08/01 03:17:53;;;;;;;5.35;2.50;;;19.40;95.50;;;;;;5066724;28;20591;-82
2023/08/01 03:20:19;;;;;;;9.48;2.80;;;19.40;95.50;;;;;;5098190;27;20024;-81
2023/08/01 03:22:45;;;;;;;6.22;2.75;;;19.30;95.50;;;;;;5065370;28;20017;-81
2023/08/01 03:25:10;;;;;;;7.07;2.92;;;19.40;95.60;;;;;;5100535;27;20745;-82
2023/08/01 03:27:36;;;;;;;5.18;2.60;;;19.40;95.60;;;;;;5065760;28;20547;-81
2023/08/01 03:30:04;;;;;;;4.10;2.33;;;19.40;95.60;;;;;;5060650;28;20421;-82
2023/08/01 03:32:30;;;;;;;6.18;3.10;;;19.40;95.70;;;;;;5063575;28;20025;-82
2023/08/01 03:34:56;;;;;;;6.63;2.83;;;19.40;95.70;;;;;;5096807;27;20111;-82
2023/08/01 03:37:21;;;;;;;6.28;3.38;;;19.40;95.70;;;;;;5064669;28;20055;-82
2023/08/01 03:39:47;;;;;;;10.73;3.33;;;19.30;95.70;;;;;;5072002;28;20024;-82
2023/08/01 03:42:13;;;;;;;5.78;2.65;;;19.40;95.70;;;;;;5101186;27;20071;-82
2023/08/01 03:44:38;;;;;;;10.35;2.60;;;19.40;95.70;;;;;;5071402;28;20085;-82
2023/08/01 03:47:04;;;;;;;5.13;2.97;;;19.30;95.70;;;;;;5098879;27;20024;-82
2023/08/01 03:49:30;;;;;;;5.38;3.17;;;19.30;95.60;;;;;;5064644;28;20477;-83
2023/08/01 03:51:55;;;;;;;7.15;3.30;;;19.30;95.70;;;;;;5062329;28;20166;-81
2023/08/01 03:54:21;;;;;;;8.40;2.90;;;19.30;95.80;;;;;;5064518;28;20501;-82
2023/08/01 03:56:47;;;;;;;6.07;2.95;;;19.30;95.70;;;;;;5071874;28;20029;-82
2023/08/01 03:59:13;;;;;;;7.05;2.70;;;19.30;95.80;;;;;;5059874;28;20047;-82
2023/08/01 04:01:39;;;;;;;6.55;2.70;;;19.30;95.80;;;;;;5094432;28;20035;-82
2023/08/01 04:04:05;;;;;;;5.45;2.90;;;19.30;95.80;;;;;;5060265;28;20454;-82
2023/08/01 04:06:30;;;;;;;4.78;2.20;;;19.30;95.80;;;;;;5070881;28;20090;-81
2023/08/01 04:08:56;;;;;;;6.13;3.10;;;19.30;95.90;;;;;;5062282;28;20016;-83
2023/08/01 04:11:22;;;;;;;6.30;2.35;;;19.30;95.90;;;;;;5062884;28;20032;-80
2023/08/01 04:13:48;;;;;;;6.80;2.65;;;19.30;95.90;;;;;;5069971;28;20027;-82
2023/08/01 04:16:14;;;;;;;4.28;2.72;;;19.40;95.90;;;;;;5099627;27;20025;-81
2023/08/01 04:18:39;;;;;;;7.18;2.90;;;19.30;95.90;;;;;;5057517;28;20086;-82
2023/08/01 04:21:06;;;;;;;4.82;2.50;;;19.30;95.90;;;;;;5055055;28;20025;-82
2023/08/01 04:23:32;;;;;;;7.22;2.22;;;19.30;96.00;;;;;;5061871;28;20114;-81
2023/08/01 04:25:59;;;;;;;6.07;2.70;;;19.30;95.90;;;;;;5058809;28;20489;-81
2023/08/01 04:28:25;;;;;;;4.50;2.55;;;19.30;95.90;;;;;;5070818;28;20043;-82
2023/08/01 04:30:52;;;;;;;8.68;3.13;;;19.30;95.90;;;;;;5060539;28;20169;-82
2023/08/01 04:33:17;;;;;;;5.82;2.97;;;19.30;95.90;;;;;;5062239;28;20111;-81
2023/08/01 04:35:43;;;;;;;7.30;2.30;;;19.30;95.90;;;;;;5068544;28;20124;-82
2023/08/01 04:38:10;;;;;;;6.85;3.05;;;19.30;96.00;;;;;;5065035;28;20409;-82
2023/08/01 04:40:36;;;;;;;4.38;2.60;;;19.30;96.00;;;;;;5058608;28;20012;-82
2023/08/01 04:43:02;;;;;;;7.40;2.95;;;19.30;96.40;;;;;;5063453;28;20432;-82
2023/08/01 04:45:28;;;;;;;7.13;3.30;;;19.30;96.10;;;;;;5070333;28;20037;-82
2023/08/01 04:47:53;;;;;;;8.13;2.90;;;19.30;96.00;;;;;;5061758;28;20583;-80
2023/08/01 04:50:19;;;;;;;5.43;2.60;;;19.30;96.40;;;;;;5054002;28;20394;-81
2023/08/01 04:52:45;;;;;;;9.10;2.65;;;19.30;96.40;;;;;;5058292;28;20017;-81
2023/08/01 04:55:10;;;;;;;4.50;2.53;;;19.30;96.40;;;;;;5094181;28;20044;-82
2023/08/01 04:57:36;;;;;;;7.18;2.88;;;19.30;96.40;;;;;;5065365;28;20539;-82
2023/08/01 05:00:03;;;;;;;4.53;2.60;;;19.30;96.30;;;;;;5062965;28;20029;-82
2023/08/01 05:02:28;;;;;;;5.40;2.83;;;19.30;96.30;;;;;;5095506;28;20082;-82
2023/08/01 05:04:54;;;;;;;5.88;2.95;;;19.30;96.20;;;;;;5092511;28;20033;-82
2023/08/01 05:07:20;;;;;;;5.35;2.70;;;19.30;96.30;;;;;;5058779;28;20128;-82
2023/08/01 05:09:45;;;;;;;5.53;3.08;;;19.30;96.30;;;;;;5062185;28;20024;-82
2023/08/01 05:12:11;;;;;;;5.43;2.58;;;19.30;96.30;;;;;;5062299;28;20379;-82
2023/08/01 05:14:37;;;;;;;7.55;3.10;;;19.30;96.30;;;;;;5066179;28;20531;-83
2023/08/01 05:17:03;;;;;;;5.25;2.88;;;19.30;96.20;;;;;;5063219;28;20104;-82
2023/08/01 05:19:29;;;;;;;5.85;3.20;;;19.30;96.30;;;;;;5069835;28;20021;-82
2023/08/01 05:21:55;;;;;;;6.35;2.90;;;19.30;96.30;;;;;;5061859;28;20099;-82
2023/08/01 05:24:21;;;;;;;7.53;3.40;;;19.30;96.30;;;;;;5095165;28;20414;-83
2023/08/01 05:26:47;;;;;;;6.82;3.80;;;19.30;96.30;;;;;;5096838;28;20104;-82
2023/08/01 05:29:12;;;;;;;9.18;2.85;;;19.30;96.40;;;;;;5064169;28;20056;-82
2023/08/01 05:31:38;;;;;;;4.68;2.60;;;19.30;96.30;;;;;;5069973;28;20064;-82
2023/08/01 05:34:04;;;;;;;6.30;3.08;;;19.30;96.40;;;;;;5062620;28;20108;-82
2023/08/01 05:36:29;;;;;;;10.50;3.28;;;19.30;96.40;;;;;;5063687;28;20174;-82
2023/08/01 05:38:56;;;;;;;7.18;3.25;;;19.30;96.30;;;;;;5064920;28;20028;-82
2023/08/01 05:41:21;;;;;;;8.40;3.15;;;19.30;96.40;;;;;;5094519;28;20021;-81
2023/08/01 05:43:48;;;;;;;4.72;2.75;;;19.30;96.40;;;;;;5065647;28;20025;-82
2023/08/01 05:46:14;;;;;;;6.95;3.42;;;19.30;96.40;;;;;;5064882;28;20417;-82
2023/08/01 05:48:40;;;;;;;9.43;3.22;;;19.30;96.30;;;;;;5098483;28;20020;-82
2023/08/01 05:51:06;;;;;;;11.48;3.90;;;19.30;96.40;;;;;;5066961;28;20051;-82
2023/08/01 05:53:31;;;;;;;7.07;2.28;;;19.30;96.40;;;;;;5068242;28;20025;-82
2023/08/01 05:55:57;;;;;;;7.85;3.35;;;19.30;96.40;;;;;;5067946;28;20021;-81
2023/08/01 05:58:23;;;;;;;8.38;3.25;;;19.30;96.40;;;;;;5065414;28;20096;-82
2023/08/01 06:00:49;;;;;;;3.55;2.60;;;19.30;96.40;;;;;;5063547;28;20025;-82
2023/08/01 06:03:14;;;;;;;5.88;3.05;;;19.30;96.40;;;;;;5061849;28;20108;-81
2023/08/01 06:05:40;;;;;;;8.90;2.83;;;19.30;96.50;;;;;;5065616;28;21359;-82
2023/08/01 06:08:08;;;;;;;6.82;2.95;;;19.30;96.40;;;;;;5064733;28;20071;-81
2023/08/01 06:10:34;;;;;;;6.10;2.95;;;19.30;96.40;;;;;;5067204;28;20505;-81
2023/08/01 06:12:59;;;;;;;11.05;3.20;;;19.30;96.40;;;;;;5067977;28;20422;-81
2023/08/01 06:15:25;;;;;;;4.93;2.53;;;19.30;96.50;;;;;;5065718;28;20123;-81
2023/08/01 06:17:50;;;;;;;7.13;2.78;;;19.30;96.50;;;;;;5065371;28;20024;-82
2023/08/01 06:20:16;;;;;;;6.35;2.88;;;19.30;96.50;;;;;;5071338;28;20024;-80
2023/08/01 06:22:42;;;;;;;4.30;2.45;;;19.30;96.50;;;;;;5067701;28;20056;-81
2023/08/01 06:25:08;;;;;;;7.00;2.92;;;19.30;96.50;;;;;;5066200;28;20017;-80
2023/08/01 06:27:34;;;;;;;5.78;2.97;;;19.30;96.50;;;;;;5070619;28;20358;-81
2023/08/01 06:30:00;;;;;;;5.55;2.88;;;19.30;96.50;;;;;;5064981;28;20032;-79
2023/08/01 06:32:26;;;;;;;5.25;2.80;;;19.30;96.40;;;;;;5068414;28;20070;-80
2023/08/01 06:34:52;;;;;;;8.80;3.30;;;19.30;96.50;;;;;;5068201;28;20032;-80
2023/08/01 06:37:18;;;;;;;3.97;2.85;;;19.30;96.50;;;;;;5066086;28;20524;-80
2023/08/01 06:39:43;;;;;;;5.07;2.45;;;19.30;96.50;;;;;;5069525;28;20025;-79
2023/08/01 06:42:09;;;;;;;6.10;2.95;;;19.30;96.50;;;;;;5071628;28;20111;-81
2023/08/01 06:44:35;;;;;;;6.63;3.30;;;19.30;96.80;;;;;;5065888;28;20036;-78
2023/08/01 06:47:00;;;;;;;6.93;2.78;;;19.30;96.40;;;;;;5068141;28;20020;-79
2023/08/01 06:49:26;;;;;;;5.63;3.08;;;19.30;96.40;;;;;;5068059;28;20025;-80
2023/08/01 06:51:51;;;;;;;8.20;2.90;;;19.30;96.40;;;;;;5070552;28;20036;-79
2023/08/01 06:54:17;;;;;;;7.20;3.25;;;19.30;96.50;;;;;;5066361;28;20032;-81
2023/08/01 06:56:47;;;;;;;6.60;2.80;;;19.30;96.40;;;;;;5068996;28;20025;-80
2023/08/01 06:59:14;;;;;;;5.13;2.90;;;19.30;96.50;;;;;;5065857;28;20021;-81
2023/08/01 07:01:40;;;;;;;4.45;2.63;;;19.30;96.50;;;;;;5064843;28;20416;-79
2023/08/01 07:04:06;;;;;;;5.22;2.72;;;19.30;96.50;;;;;;5057531;28;20207;-80
2023/08/01 07:06:31;;;;;;;6.85;3.35;;;19.30;96.60;;;;;;5057393;28;20104;-80
2023/08/01 07:08:57;;;;;;;6.57;2.92;;;19.20;96.50;;;;;;5057684;28;20025;-79
2023/08/01 07:11:23;;;;;;;8.13;2.58;;;19.30;96.50;;;;;;5068361;28;20043;-77
2023/08/01 07:13:49;;;;;;;7.53;3.28;;;19.20;96.50;;;;;;5075459;28;20112;-79
2023/08/01 07:16:15;;;;;;;3.58;2.40;;;19.30;96.50;;;;;;5062662;28;20029;-79
2023/08/01 07:18:40;;;;;;;7.53;3.00;;;19.20;96.40;;;;;;5061063;28;20025;-79
2023/08/01 07:21:06;;;;;;;6.07;2.47;;;19.20;96.40;;;;;;5066712;28;20039;-79
2023/08/01 07:23:34;;;;;;;4.25;2.45;;;19.20;96.70;;;;;;5068179;28;20021;-79
2023/08/01 07:26:00;;;;;;;9.05;2.95;;;19.20;96.40;;;;;;5064008;28;20028;-79
2023/08/01 07:28:26;;;;;;;6.85;2.92;;;19.20;96.40;;;;;;5070756;28;20039;-79
2023/08/01 07:31:05;;;;;;;6.20;3.20;;;19.20;96.40;;;;;;5064706;28;20131;-79
2023/08/01 07:33:32;;;;;;;5.47;3.35;;;19.20;96.30;;;;;;5066177;28;20028;-81
2023/08/01 07:35:58;;;;;;;5.50;3.25;;;19.30;96.70;;;;;;5059713;28;20040;-80
2023/08/01 07:38:24;;;;;;;4.38;2.67;;;19.30;96.40;;;;;;5062260;28;20485;-79
2023/08/01 07:40:50;;;;;;;5.40;2.85;;;19.20;96.30;;;;;;5065559;28;20071;-80
2023/08/01 07:43:16;;;;;;;7.43;3.15;;;19.30;96.30;;;;;;5066621;28;20025;-79
2023/08/01 07:45:42;;;;;;;7.20;3.00;;;19.20;96.30;;;;;;5065129;28;20020;-79
2023/08/01 07:48:07;;;;;;;5.68;2.83;;;19.20;96.30;;;;;;5067009;28;20040;-79
2023/08/01 07:50:33;;;;;;;4.72;2.75;;;19.20;96.30;;;;;;5061465;28;20032;-78
2023/08/01 07:52:59;;;;;;;5.47;3.08;;;19.30;96.30;;;;;;5065085;28;20465;-79
2023/08/01 07:55:24;;;;;;;5.38;2.45;;;19.20;96.30;;;;;;5051598;28;20025;-80
2023/08/01 07:57:50;;;;;;;5.88;2.70;;;19.20;96.30;;;;;;5066668;28;20028;-78
2023/08/01 08:00:16;;;;;;;6.75;3.22;;;19.20;96.30;;;;;;5063414;28;20028;-79
2023/08/01 08:02:44;;;;;;;5.95;2.90;;;19.20;96.30;;;;;;5060713;28;20035;-78
2023/08/01 08:05:10;;;;;;;4.43;2.25;;;19.20;96.30;;;;;;5059939;28;20050;-78
2023/08/01 08:07:39;;;;;;;6.43;3.35;;;19.20;96.30;;;;;;5054632;28;20043;-80
2023/08/01 08:10:05;;;;;;;8.82;3.05;;;19.30;96.30;;;;;;5066864;28;20803;-78
2023/08/01 08:12:32;;;;;;;15.73;2.70;;;19.20;96.30;;;;;;5058348;28;20029;-79
2023/08/01 08:14:57;;;;;;;5.57;3.08;;;19.20;96.30;;;;;;5069518;28;20036;-78
2023/08/01 08:17:23;;;;;;;5.10;2.45;;;19.30;96.30;;;;;;5091511;27;20028;-79
2023/08/01 08:19:49;;;;;;;5.65;2.97;;;19.30;96.30;;;;;;5061634;28;20029;-79
2023/08/01 08:22:14;;;;;;;3.28;1.73;;;19.30;96.30;;;;;;5062872;28;20041;-79
2023/08/01 08:24:40;;;;;;;4.43;2.70;;;19.30;96.20;;;;;;5062194;28;20551;-78
2023/08/01 08:27:06;;;;;;;5.80;2.78;;;19.20;96.20;;;;;;5061758;28;20051;-79
2023/08/01 08:29:33;;;;;;;5.22;2.63;;;19.20;96.20;;;;;;5064004;28;20033;-78
2023/08/01 08:31:59;;;;;;;4.88;2.47;;;19.20;96.20;;;;;;5064533;28;20036;-80
2023/08/01 08:34:24;;;;;;;4.50;2.65;;;19.20;96.20;;;;;;5062225;28;20032;-78
2023/08/01 08:36:50;;;;;;;6.18;1.30;;;19.20;96.20;;;;;;5062257;28;20464;-78
2023/08/01 08:39:17;;;;;;;5.00;2.67;;;19.30;96.30;;;;;;5063245;28;20032;-78
2023/08/01 08:41:48;;;;;;;2.10;1.90;;;19.20;96.20;;;;;;5060249;28;20039;-78
2023/08/01 08:44:22;;;;;;;4.28;2.28;;;19.30;96.20;;;;;;5065115;28;20035;-79
2023/08/01 08:47:02;;;;;;;6.82;3.20;;;19.20;96.20;;;;;;5066625;28;20037;-79
2023/08/01 08:49:28;;;;;;;3.28;2.13;;;19.30;96.20;;;;;;5065597;28;20101;-78
2023/08/01 08:51:54;;;;;;;7.20;2.50;;;19.20;96.10;;;;;;5065108;28;20032;-78
2023/08/01 08:54:20;;;;;;;5.90;3.08;;;19.20;96.10;;;;;;5068114;28;20164;-77
2023/08/01 08:56:46;;;;;;;2.33;1.00;;;19.30;96.20;;;;;;5058406;28;20029;-79
2023/08/01 08:59:12;;;;;;;7.28;2.70;;;19.20;96.20;;;;;;5066234;28;20028;-78
2023/08/01 09:01:39;;;;;;;2.45;1.77;;;19.20;96.10;;;;;;5098633;28;20057;-78
2023/08/01 09:04:05;;;;;;;7.20;3.38;;;19.30;96.20;;;;;;5067613;28;20020;-78
2023/08/01 09:06:49;;;;;;;5.53;2.50;;;19.20;96.10;;;;;;5064531;28;20112;-79
2023/08/01 09:09:15;;;;;;;7.13;3.17;;;19.20;96.10;;;;;;5066734;28;20024;-78
2023/08/01 09:11:51;;;;;;;4.75;1.98;;;19.20;96.10;;;;;;5063673;28;20143;-78
2023/08/01 09:14:18;;;;;;;6.53;3.35;;;19.20;96.10;;;;;;5067213;28;20021;-78
2023/08/01 09:16:44;;;;;;;6.88;2.97;;;19.20;96.10;;;;;;5067968;28;20389;-78
2023/08/01 09:19:13;;;;;;;5.75;2.38;;;19.20;96.10;;;;;;5068845;28;20380;-77
2023/08/01 09:21:39;;;;;;;2.22;1.40;;;19.20;96.10;;;;;;5069180;28;20086;-81
2023/08/01 09:24:21;;;;;;;8.20;3.10;;;19.20;96.20;;;;;;5070924;28;20029;-79
2023/08/01 09:26:49;;;;;;;7.25;3.20;;;19.30;96.20;;;;;;5065515;28;20450;-79
2023/08/01 09:29:19;;;;;;;4.82;2.45;;;19.20;96.20;;;;;;5062890;28;20035;-78
2023/08/01 09:31:45;;;;;;;2.40;1.77;;;19.20;96.20;;;;;;5061831;28;20048;-79
2023/08/01 09:34:24;;;;;;;5.95;2.38;;;19.30;96.30;;;;;;5064468;28;20039;-79
2023/08/01 09:36:51;;;;;;;6.43;2.60;;;19.20;96.30;;;;;;5063799;28;20025;-80
2023/08/01 09:39:21;;;;;;;4.97;2.72;;;19.20;96.30;;;;;;5065976;28;20032;-80
2023/08/01 09:41:58;;;;;;;4.43;2.10;;;19.20;96.40;;;;;;5072238;28;20024;-77
2023/08/01 09:44:26;;;;;;;8.70;3.88;;;19.20;96.40;;;;;;5069436;28;20499;-79
2023/08/01 09:46:59;;;;;;;6.43;2.58;;;19.20;96.40;;;;;;5068628;28;21024;-79
2023/08/01 09:49:26;;;;;;;6.60;3.03;;;19.20;96.40;;;;;;5070799;28;20017;-78
2023/08/01 09:51:52;;;;;;;5.20;2.60;;;19.20;96.40;;;;;;5068600;28;20032;-79
2023/08/01 09:54:18;;;;;;;8.98;2.90;;;19.20;96.40;;;;;;5073919;28;20530;-80
2023/08/01 09:56:45;;;;;;;5.97;3.05;;;19.20;96.50;;;;;;5072605;28;20112;-81
2023/08/01 09:59:11;;;;;;;6.63;2.78;;;19.20;96.40;;;;;;5069680;28;20086;-80
2023/08/01 10:01:40;;;;;;;5.95;3.22;;;19.20;96.50;;;;;;5064052;28;20578;-81
2023/08/01 10:04:08;;;;;;;6.70;2.93;;;19.20;96.50;;;;;;5059956;28;20061;-80
2023/08/01 10:06:38;;;;;;;6.53;3.20;;;19.20;96.60;;;;;;5075078;28;20870;-80
2023/08/01 10:09:04;;;;;;;5.00;2.88;;;19.30;96.60;;;;;;5071288;28;20029;-79
2023/08/01 10:11:34;;;;;;;5.13;2.72;;;19.30;96.60;;;;;;5076925;28;20060;-82
2023/08/01 10:14:02;;;;;;;5.13;2.25;;;19.30;96.60;;;;;;5066499;28;21099;-79
2023/08/01 10:16:28;;;;;;;5.85;2.28;;;19.20;96.60;;;;;;5064692;28;20057;-80
2023/08/01 10:18:54;;;;;;;5.80;3.03;;;19.20;96.70;;;;;;5069760;28;20067;-77
2023/08/01 10:21:21;;;;;;;6.85;2.78;;;19.20;96.70;;;;;;5065139;28;20020;-77
2023/08/01 10:23:48;;;;;;;4.32;2.45;;;19.20;96.80;;;;;;5062475;28;20512;-79
2023/08/01 10:26:15;;;;;;;4.68;2.97;;;19.20;96.80;;;;;;5074518;28;20477;-79
2023/08/01 10:28:49;;;;;;;7.28;3.00;;;19.20;96.90;;;;;;5063604;28;20032;-78
2023/08/01 10:31:17;;;;;;;6.25;3.00;;;19.30;96.90;;;;;;5066555;28;20037;-79
2023/08/01 10:33:45;;;;;;;4.70;2.53;;;19.20;96.90;;;;;;5064149;28;20104;-80
2023/08/01 10:36:20;;;;;;;4.38;2.95;;;19.30;96.90;;;;;;5068187;28;20516;-79
2023/08/01 10:38:52;;;;;;;7.15;2.97;;;19.30;96.90;;;;;;5070174;28;20473;-79
2023/08/01 10:41:37;;;;;;;7.40;3.33;;;19.20;97.00;;;;;;5073136;28;20440;-79
2023/08/01 10:44:13;;;;;;;4.80;2.67;;;19.20;96.90;;;;;;5066436;28;20520;-79
2023/08/01 10:46:51;;;;;;;7.82;3.40;;;19.30;97.00;;;;;;5067830;28;20082;-79
2023/08/01 10:49:32;;;;;;;5.40;2.90;;;19.20;97.00;;;;;;5066193;28;20074;-79
2023/08/01 10:52:00;;;;;;;7.35;2.65;;;19.20;97.10;;;;;;5062079;28;20060;-79
2023/08/01 10:54:26;;;;;;;6.03;2.90;;;19.20;97.00;;;;;;5071923;28;20020;-80
2023/08/01 10:56:58;;;;;;;4.75;2.70;;;19.20;96.90;;;;;;5065162;28;20716;-80
2023/08/01 10:59:24;;;;;;;7.30;3.15;;;19.20;97.00;;;;;;5071223;28;20520;-80
2023/08/01 11:01:57;;;;;;;11.13;3.30;;;19.20;96.90;;;;;;5099128;27;20124;-83
2023/08/01 11:04:23;;;;;;;5.53;2.15;;;19.20;97.00;;;;;;5061842;28;20473;-83
2023/08/01 11:06:51;;;;;;;7.68;2.70;;;19.20;97.00;;;;;;5067614;28;20024;-83
2023/08/01 11:09:23;;;;;;;5.65;2.33;;;19.20;96.90;;;;;;5069895;28;20033;-81
2023/08/01 11:11:57;;;;;;;3.40;2.25;;;19.20;96.90;;;;;;5104761;27;20032;-82
2023/08/01 11:14:25;;;;;;;3.85;2.38;;;19.20;96.90;;;;;;5066728;28;20024;-83
2023/08/01 11:16:51;;;;;;;5.97;2.35;;;19.20;96.90;;;;;;5097567;27;20021;-82
2023/08/01 11:19:21;;;;;;;5.93;2.35;;;19.10;96.90;;;;;;5064994;28;20048;-81
2023/08/01 11:21:47;;;;;;;4.50;2.20;;;19.20;96.90;;;;;;5068185;28;20301;-81
2023/08/01 11:24:13;;;;;;;4.03;2.47;;;19.20;96.90;;;;;;5097563;28;20041;-82
2023/08/01 11:26:46;;;;;;;4.05;1.98;;;19.20;97.00;;;;;;5064995;28;20431;-82
2023/08/01 11:29:12;;;;;;;5.07;2.05;;;19.30;97.00;;;;;;5067774;28;20060;-83
2023/08/01 11:31:39;;;;;;;10.88;2.05;;;19.30;97.00;;;;;;5066494;28;20040;-82
2023/08/01 11:34:05;;;;;;;3.95;2.17;;;19.20;97.00;;;;;;5098281;27;20029;-82
2023/08/01 11:36:31;;;;;;;3.85;2.25;;;19.20;97.10;;;;;;5072341;28;20465;-82
2023/08/01 11:39:01;;;;;;;3.95;2.00;;;19.20;97.10;;;;;;5068374;28;20048;-81
2023/08/01 11:41:27;;;;;;;4.05;2.10;;;19.20;97.10;;;;;;5097193;28;20013;-84
2023/08/01 11:43:54;;;;;;;6.10;2.08;;;19.20;97.10;;;;;;5067935;28;20064;-81
2023/08/01 11:46:21;;;;;;;5.70;1.98;;;19.20;97.20;;;;;;5069628;28;20035;-83
2023/08/01 11:48:48;;;;;;;5.18;2.13;;;19.20;97.20;;;;;;5098381;27;20119;-81
2023/08/01 11:51:13;;;;;;;3.53;2.20;;;19.20;97.20;;;;;;5067433;28;20119;-83
2023/08/01 11:53:39;;;;;;;3.58;2.00;;;19.20;97.20;;;;;;5072544;28;20150;-82
2023/08/01 11:56:05;;;;;;;2.60;1.85;;;19.10;97.20;;;;;;5066562;28;20032;-82
2023/08/01 11:58:36;;;;;;;3.75;1.83;;;19.20;97.20;;;;;;5099153;27;20063;-82
2023/08/01 12:01:03;;;;;;;2.13;1.60;;;19.20;97.20;;;;;;5066649;28;20161;-81
2023/08/01 12:03:29;;;;;;;1.92;1.48;;;19.20;97.20;;;;;;5068526;28;20397;-81
2023/08/01 12:06:07;;;;;;;2.13;1.60;;;19.20;97.30;;;;;;5065896;28;20036;-83
2023/08/01 12:08:34;;;;;;;1.67;1.35;;;19.20;97.30;;;;;;5065575;28;20393;-81
2023/08/01 12:11:00;;;;;;;2.45;1.63;;;19.20;97.40;;;;;;5063715;28;20033;-81
2023/08/01 12:13:26;;;;;;;2.17;1.27;;;19.20;97.70;;;;;;5064352;28;20017;-82
2023/08/01 12:15:53;;;;;;;1.15;1.00;;;19.20;97.40;;;;;;5073689;28;20013;-83
2023/08/01 12:18:27;;;;;;;2.20;1.45;;;19.20;97.50;;;;;;5068242;28;20026;-80
2023/08/01 12:20:53;;;;;;;1.88;1.00;;;19.20;97.50;;;;;;5067672;28;20048;-81
2023/08/01 12:23:20;;;;;;;2.00;1.20;;;19.20;97.60;;;;;;5064796;28;20019;-81
2023/08/01 12:25:49;;;;;;;1.63;1.13;;;19.20;97.60;;;;;;5066719;28;20057;-80
2023/08/01 12:28:15;;;;;;;2.13;1.33;;;19.30;97.60;;;;;;5065324;28;20032;-82
2023/08/01 12:30:41;;;;;;;2.65;1.38;;;19.20;97.60;;;;;;5069647;28;20031;-81
2023/08/01 12:33:09;;;;;;;2.55;1.42;;;19.30;97.70;;;;;;5073079;28;20117;-81
2023/08/01 12:35:38;;;;;;;3.35;1.27;;;19.30;97.70;;;;;;5071510;28;20024;-81
2023/08/01 12:38:04;;;;;;;1.75;1.30;;;19.30;97.60;;;;;;5068560;28;20051;-82
2023/08/01 12:40:29;;;;;;;1.55;1.27;;;19.30;97.60;;;;;;5069520;28;20025;-81
2023/08/01 12:42:55;;;;;;;1.95;1.17;;;19.30;97.50;;;;;;5064942;28;20024;-81